Time;durP1;ratioP1;P1;durP2;ratioP2;P2;SDS_P1;SDS_P2;PMS_P1;PMS_P2;Temp;Humidity;BMP_temperature;BMP_pressure;BME280_temperature;BME280_humidity;BME280_pressure;Samples;Min_cycle;Max_cycle;Signal;HPM_P1;HPM_P2
2022/10/19 00:01:54;;;;;;;10.50;4.72;;;;;;;;;;5093244;28;20018;-69
2022/10/19 00:04:20;;;;;;;11.15;4.68;;;;;;;;;;5091887;28;20026;-69
2022/10/19 00:06:47;;;;;;;11.75;5.07;;;;;;;;;;5093059;28;20388;-69
2022/10/19 00:09:15;;;;;;;12.73;5.00;;;;;;;;;;5093142;28;20020;-69
2022/10/19 00:11:43;;;;;;;18.05;5.05;;;;;;;;;;5092644;28;20400;-69
2022/10/19 00:14:15;;;;;;;10.50;4.93;;;;;;;;;;5092783;28;20050;-68
2022/10/19 00:16:42;;;;;;;12.48;5.05;;;;;;;;;;5093001;28;20016;-69
2022/10/19 00:19:13;;;;;;;14.77;5.13;;;;;;;;;;5092891;28;20093;-68
2022/10/19 00:21:40;;;;;;;;;;;;;;;;;;5093417;28;20048;-69
2022/10/19 00:24:06;;;;;;;13.35;5.10;;;;;;;;;;5090796;28;19911;-69
2022/10/19 00:26:33;;;;;;;13.55;5.63;;;;;;;;;;5092440;28;20028;-69
2022/10/19 00:28:59;;;;;;;16.15;5.28;;;;;;;;;;5092695;28;20035;-69
2022/10/19 00:31:26;;;;;;;11.48;5.55;;;;;;;;;;5092901;28;20030;-69
2022/10/19 00:33:52;;;;;;;11.68;4.93;;;;;;;;;;5092692;28;20028;-69
2022/10/19 00:36:19;;;;;;;13.57;5.05;;;;;;;;;;5092654;28;20026;-69
2022/10/19 00:38:45;;;;;;;9.48;4.07;;;;;;;;;;5092835;28;20024;-69
2022/10/19 00:41:12;;;;;;;9.38;5.07;;;;;;;;;;5092347;28;20024;-69
2022/10/19 00:43:57;;;;;;;11.30;4.85;;;;;;;;;;5092227;28;20030;-69
2022/10/19 00:46:24;;;;;;;15.80;4.90;;;;;;;;;;5092760;28;20036;-69
2022/10/19 00:48:52;;;;;;;9.35;4.97;;;;;;;;;;5092464;28;20395;-69
2022/10/19 00:51:19;;;;;;;12.90;5.25;;;;;;;;;;5092488;28;20020;-69
2022/10/19 00:53:45;;;;;;;14.30;5.05;;;;;;;;;;5092081;28;20042;-70
2022/10/19 00:56:13;;;;;;;13.18;5.22;;;;;;;;;;5092253;28;20023;-69
2022/10/19 00:58:40;;;;;;;15.73;5.47;;;;;;;;;;5092481;28;20024;-69
2022/10/19 01:01:08;;;;;;;15.07;5.22;;;;;;;;;;5092271;28;20077;-69
2022/10/19 01:03:35;;;;;;;9.50;4.43;;;;;;;;;;5092151;28;20024;-69
2022/10/19 01:06:01;;;;;;;11.65;5.00;;;;;;;;;;5092003;28;20020;-69
2022/10/19 01:08:27;;;;;;;13.45;5.38;;;;;;;;;;5090671;28;20024;-69
2022/10/19 01:11:10;;;;;;;12.95;5.30;;;;;;;;;;5092208;28;20024;-69
2022/10/19 01:13:37;;;;;;;19.40;5.40;;;;;;;;;;5091942;28;20044;-69
2022/10/19 01:16:07;;;;;;;12.77;5.60;;;;;;;;;;5092109;28;20507;-69
2022/10/19 01:18:42;;;;;;;9.73;4.55;;;;;;;;;;5092205;28;20034;-69
2022/10/19 01:21:13;;;;;;;13.48;5.53;;;;;;;;;;5092394;28;20031;-69
2022/10/19 01:23:57;;;;;;;14.38;5.20;;;;;;;;;;5091689;28;20526;-69
2022/10/19 01:26:24;;;;;;;16.02;4.95;;;;;;;;;;5092049;28;20036;-69
2022/10/19 01:28:59;;;;;;;13.93;5.35;;;;;;;;;;5092061;28;20489;-70
2022/10/19 01:31:55;;;;;;;11.38;5.53;;;;;;;;;;5091914;28;20030;-69
2022/10/19 01:34:36;;;;;;;13.98;5.65;;;;;;;;;;5087487;28;20048;-69
2022/10/19 01:37:02;;;;;;;16.42;5.72;;;;;;;;;;5096104;28;20028;-69
2022/10/19 01:39:34;;;;;;;23.45;6.50;;;;;;;;;;5095766;28;20024;-69
2022/10/19 01:42:19;;;;;;;14.35;4.90;;;;;;;;;;5095982;28;20030;-69
2022/10/19 01:44:50;;;;;;;13.32;5.15;;;;;;;;;;5095618;28;20024;-69
2022/10/19 01:47:18;;;;;;;14.15;4.40;;;;;;;;;;5096272;28;20028;-69
2022/10/19 01:49:53;;;;;;;14.85;4.82;;;;;;;;;;5095867;28;20493;-69
2022/10/19 01:52:21;;;;;;;15.52;4.85;;;;;;;;;;5095406;28;20020;-69
2022/10/19 01:54:49;;;;;;;15.63;4.97;;;;;;;;;;5095554;28;20047;-69
2022/10/19 01:57:17;;;;;;;10.40;4.85;;;;;;;;;;5095933;28;20030;-69
2022/10/19 01:59:44;;;;;;;15.63;5.38;;;;;;;;;;5095917;28;20028;-69
2022/10/19 02:02:12;;;;;;;15.25;4.70;;;;;;;;;;5095464;28;20024;-70
2022/10/19 02:04:39;;;;;;;12.30;5.10;;;;;;;;;;5095511;28;20027;-69
2022/10/19 02:07:06;;;;;;;20.77;5.93;;;;;;;;;;5095212;28;20407;-69
2022/10/19 02:09:33;;;;;;;12.15;4.63;;;;;;;;;;5095304;28;20477;-69
2022/10/19 02:12:00;;;;;;;15.48;5.18;;;;;;;;;;5095309;28;20036;-69
2022/10/19 02:14:29;;;;;;;18.13;5.63;;;;;;;;;;5095056;28;20419;-69
2022/10/19 02:17:05;;;;;;;14.00;5.07;;;;;;;;;;5095318;28;20124;-69
2022/10/19 02:19:31;;;;;;;14.45;5.13;;;;;;;;;;5095024;28;20020;-69
2022/10/19 02:21:58;;;;;;;17.30;5.55;;;;;;;;;;5094779;28;20026;-69
2022/10/19 02:24:24;;;;;;;13.85;4.82;;;;;;;;;;5095163;28;20059;-70
2022/10/19 02:26:51;;;;;;;14.60;5.22;;;;;;;;;;5095246;28;20024;-69
2022/10/19 02:29:17;;;;;;;18.20;5.50;;;;;;;;;;5095128;28;20026;-69
2022/10/19 02:31:44;;;;;;;17.23;5.20;;;;;;;;;;5095079;28;20506;-69
2022/10/19 02:34:11;;;;;;;12.65;5.68;;;;;;;;;;5095095;28;20032;-69
2022/10/19 02:36:37;;;;;;;16.15;5.47;;;;;;;;;;5094520;28;20031;-69
2022/10/19 02:39:04;;;;;;;17.00;5.68;;;;;;;;;;5094818;28;20016;-69
2022/10/19 02:41:39;;;;;;;12.88;5.13;;;;;;;;;;5094807;28;20601;-68
2022/10/19 02:44:08;;;;;;;15.95;5.82;;;;;;;;;;5094638;28;20479;-68
2022/10/19 02:46:38;;;;;;;15.82;5.32;;;;;;;;;;5094234;28;20530;-69
2022/10/19 02:49:05;;;;;;;16.10;5.40;;;;;;;;;;5094921;28;20032;-69
2022/10/19 02:51:34;;;;;;;15.27;4.90;;;;;;;;;;5094559;28;20027;-69
2022/10/19 02:54:00;;;;;;;13.82;4.68;;;;;;;;;;5094398;28;20048;-69
2022/10/19 02:56:27;;;;;;;15.02;5.18;;;;;;;;;;5093143;28;20477;-69
2022/10/19 02:58:53;;;;;;;13.38;5.63;;;;;;;;;;5094505;28;20046;-69
2022/10/19 03:01:19;;;;;;;13.65;4.97;;;;;;;;;;5094194;28;20446;-69
2022/10/19 03:03:46;;;;;;;14.32;5.45;;;;;;;;;;5094573;28;20024;-68
2022/10/19 03:06:13;;;;;;;15.65;4.82;;;;;;;;;;5093909;28;20404;-69
2022/10/19 03:08:39;;;;;;;15.82;5.00;;;;;;;;;;5094591;28;20016;-69
2022/10/19 03:11:05;;;;;;;15.48;5.10;;;;;;;;;;5094288;28;20485;-68
2022/10/19 03:13:31;;;;;;;19.17;4.78;;;;;;;;;;5094069;28;20046;-68
2022/10/19 03:15:58;;;;;;;21.25;5.68;;;;;;;;;;5094557;28;20034;-69
2022/10/19 03:18:24;;;;;;;17.40;4.78;;;;;;;;;;5094129;28;20032;-69
2022/10/19 03:21:00;;;;;;;15.98;5.32;;;;;;;;;;5093655;28;20480;-69
2022/10/19 03:23:27;;;;;;;16.77;5.43;;;;;;;;;;5093949;28;20399;-69
2022/10/19 03:25:53;;;;;;;13.75;5.38;;;;;;;;;;5093863;28;20038;-71
2022/10/19 03:28:19;;;;;;;12.00;5.03;;;;;;;;;;5093949;28;20028;-69
2022/10/19 03:30:45;;;;;;;14.02;5.22;;;;;;;;;;5093992;28;20024;-69
2022/10/19 03:33:12;;;;;;;11.90;5.03;;;;;;;;;;5093815;28;20366;-69
2022/10/19 03:35:38;;;;;;;15.63;5.78;;;;;;;;;;5093584;28;20032;-69
2022/10/19 03:38:04;;;;;;;16.10;5.43;;;;;;;;;;5093662;28;20026;-69
2022/10/19 03:40:31;;;;;;;20.90;5.50;;;;;;;;;;5093789;28;20538;-69
2022/10/19 03:42:57;;;;;;;14.93;5.32;;;;;;;;;;5093660;28;20476;-69
2022/10/19 03:45:23;;;;;;;15.32;5.55;;;;;;;;;;5093531;28;20031;-69
2022/10/19 03:47:50;;;;;;;12.80;5.18;;;;;;;;;;5093498;28;20024;-69
2022/10/19 03:50:17;;;;;;;16.23;5.55;;;;;;;;;;5092461;28;20040;-69
2022/10/19 03:52:44;;;;;;;16.35;5.10;;;;;;;;;;5093497;28;20019;-69
2022/10/19 03:55:10;;;;;;;14.50;5.18;;;;;;;;;;5093366;28;20048;-69
2022/10/19 03:57:37;;;;;;;18.38;5.43;;;;;;;;;;5092518;28;20630;-69
2022/10/19 04:00:04;;;;;;;14.23;5.30;;;;;;;;;;5093244;28;20024;-69
2022/10/19 04:02:30;;;;;;;12.77;4.70;;;;;;;;;;5092916;28;20020;-69
2022/10/19 04:04:57;;;;;;;12.70;5.07;;;;;;;;;;5093319;28;20030;-69
2022/10/19 04:07:23;;;;;;;17.58;6.03;;;;;;;;;;5093085;28;20046;-69
2022/10/19 04:09:49;;;;;;;17.08;5.45;;;;;;;;;;5093073;28;20013;-69
2022/10/19 04:12:15;;;;;;;20.27;5.72;;;;;;;;;;5093112;28;20511;-69
2022/10/19 04:14:42;;;;;;;19.90;5.75;;;;;;;;;;5092821;28;20055;-70
2022/10/19 04:17:09;;;;;;;16.30;5.50;;;;;;;;;;5092616;28;20020;-69
2022/10/19 04:19:35;;;;;;;11.90;5.78;;;;;;;;;;5093670;28;20020;-69
2022/10/19 04:22:02;;;;;;;14.02;5.50;;;;;;;;;;5092671;28;20016;-69
2022/10/19 04:24:28;;;;;;;18.55;5.38;;;;;;;;;;5092850;28;20032;-69
2022/10/19 04:26:55;;;;;;;14.73;5.45;;;;;;;;;;5092720;28;20020;-69
2022/10/19 04:29:22;;;;;;;18.02;5.55;;;;;;;;;;5092710;28;20020;-69
2022/10/19 04:31:49;;;;;;;14.70;5.10;;;;;;;;;;5092455;28;20045;-69
2022/10/19 04:34:16;;;;;;;15.98;4.90;;;;;;;;;;5091463;28;20043;-69
2022/10/19 04:36:42;;;;;;;18.25;5.43;;;;;;;;;;5092576;28;20020;-69
2022/10/19 04:39:08;;;;;;;13.52;5.45;;;;;;;;;;5091502;28;20028;-69
2022/10/19 04:41:36;;;;;;;12.73;5.05;;;;;;;;;;5092454;28;20481;-69
2022/10/19 04:44:03;;;;;;;15.65;6.18;;;;;;;;;;5092435;28;20477;-69
2022/10/19 04:46:30;;;;;;;15.23;4.95;;;;;;;;;;5091963;28;20012;-69
2022/10/19 04:48:57;;;;;;;21.75;5.32;;;;;;;;;;5092724;28;20032;-69
2022/10/19 04:51:23;;;;;;;15.23;4.90;;;;;;;;;;5092354;28;20012;-69
2022/10/19 04:53:50;;;;;;;23.00;6.03;;;;;;;;;;5092369;28;20035;-69
2022/10/19 04:56:20;;;;;;;17.73;5.05;;;;;;;;;;5092251;28;20041;-69
2022/10/19 04:58:47;;;;;;;16.85;5.13;;;;;;;;;;5092563;28;20028;-69
2022/10/19 05:01:18;;;;;;;13.50;4.95;;;;;;;;;;5090841;28;20024;-69
2022/10/19 05:03:45;;;;;;;12.15;5.00;;;;;;;;;;5092247;28;20034;-69
2022/10/19 05:06:12;;;;;;;13.55;5.55;;;;;;;;;;5092371;28;20515;-69
2022/10/19 05:08:38;;;;;;;20.20;5.32;;;;;;;;;;5092119;28;20012;-69
2022/10/19 05:11:06;;;;;;;16.70;4.82;;;;;;;;;;5092358;28;20017;-69
2022/10/19 05:13:33;;;;;;;14.40;4.50;;;;;;;;;;5091991;28;20094;-69
2022/10/19 05:16:00;;;;;;;13.55;5.00;;;;;;;;;;5092041;28;20024;-69
2022/10/19 05:18:27;;;;;;;16.52;4.80;;;;;;;;;;5092483;28;20020;-70
2022/10/19 05:21:06;;;;;;;12.15;4.43;;;;;;;;;;5092228;28;20032;-69
2022/10/19 05:23:33;;;;;;;18.02;4.75;;;;;;;;;;5071888;28;20081;-69
2022/10/19 05:26:01;;;;;;;15.55;4.82;;;;;;;;;;5071775;28;20481;-69
2022/10/19 05:28:27;;;;;;;12.93;4.70;;;;;;;;;;5071985;28;20396;-69
2022/10/19 05:30:53;;;;;;;22.02;5.68;;;;;;;;;;5098297;28;20020;-69
2022/10/19 05:33:19;;;;;;;16.10;4.60;;;;;;;;;;5112435;28;20028;-69
2022/10/19 05:35:46;;;;;;;21.77;5.10;;;;;;;;;;5112338;28;20028;-69
2022/10/19 05:38:12;;;;;;;16.98;5.50;;;;;;;;;;5112358;28;20016;-69
2022/10/19 05:40:43;;;;;;;14.00;4.30;;;;;;;;;;5112176;28;20377;-69
2022/10/19 05:43:10;;;;;;;10.07;4.45;;;;;;;;;;5112597;28;20031;-69
2022/10/19 05:45:36;;;;;;;10.73;4.60;;;;;;;;;;5091520;28;20515;-69
2022/10/19 05:48:02;;;;;;;13.77;5.22;;;;;;;;;;5091970;28;20065;-69
2022/10/19 05:50:29;;;;;;;14.27;4.82;;;;;;;;;;5090579;28;20032;-69
2022/10/19 05:52:55;;;;;;;15.52;4.82;;;;;;;;;;5091745;28;20530;-69
2022/10/19 05:55:21;;;;;;;19.23;5.18;;;;;;;;;;5091655;28;20036;-69
2022/10/19 05:57:48;;;;;;;14.02;4.57;;;;;;;;;;5091625;28;20024;-69
2022/10/19 06:00:14;;;;;;;12.30;3.95;;;;;;;;;;5091688;28;20098;-69
2022/10/19 06:02:40;;;;;;;13.98;4.32;;;;;;;;;;5091598;28;20396;-69
2022/10/19 06:05:07;;;;;;;9.88;4.50;;;;;;;;;;5092006;28;20080;-69
2022/10/19 06:07:33;;;;;;;11.23;4.20;;;;;;;;;;5090614;28;20034;-69
2022/10/19 06:09:59;;;;;;;10.82;4.22;;;;;;;;;;5091784;28;20036;-69
2022/10/19 06:12:26;;;;;;;16.55;4.47;;;;;;;;;;5079877;28;20017;-69
2022/10/19 06:14:52;;;;;;;15.63;4.45;;;;;;;;;;5076579;28;20038;-69
2022/10/19 06:17:18;;;;;;;20.58;4.90;;;;;;;;;;5091767;28;20023;-69
2022/10/19 06:19:45;;;;;;;22.08;5.30;;;;;;;;;;5091610;28;20500;-69
2022/10/19 06:22:11;;;;;;;20.92;5.13;;;;;;;;;;5092304;28;20032;-69
2022/10/19 06:24:37;;;;;;;13.57;5.13;;;;;;;;;;5091084;28;20024;-69
2022/10/19 06:27:05;;;;;;;14.15;4.82;;;;;;;;;;5083106;28;20542;-69
2022/10/19 06:29:31;;;;;;;17.75;5.13;;;;;;;;;;5096350;28;20053;-69
2022/10/19 06:31:59;;;;;;;16.08;4.90;;;;;;;;;;5095425;28;20024;-69
2022/10/19 06:34:25;;;;;;;8.85;4.00;;;;;;;;;;5093190;28;20032;-69
2022/10/19 06:36:51;;;;;;;12.73;4.60;;;;;;;;;;5086786;28;20512;-69
2022/10/19 06:39:18;;;;;;;14.15;4.15;;;;;;;;;;5091189;28;20036;-69
2022/10/19 06:41:44;;;;;;;11.93;4.07;;;;;;;;;;5092363;28;20582;-70
2022/10/19 06:44:10;;;;;;;11.70;3.95;;;;;;;;;;5080926;28;20081;-69
2022/10/19 06:46:36;;;;;;;10.32;3.95;;;;;;;;;;5080609;28;20024;-69
2022/10/19 06:49:03;;;;;;;13.30;4.30;;;;;;;;;;5093428;28;20024;-69
2022/10/19 06:51:31;;;;;;;14.68;4.47;;;;;;;;;;5093525;28;20051;-69
2022/10/19 06:53:57;;;;;;;11.52;4.15;;;;;;;;;;5092459;28;20024;-69
2022/10/19 06:56:24;;;;;;;10.48;3.72;;;;;;;;;;5100437;28;20031;-69
2022/10/19 06:58:50;;;;;;;12.18;4.07;;;;;;;;;;5098285;28;20020;-69
2022/10/19 07:01:17;;;;;;;15.93;4.72;;;;;;;;;;5093362;28;20032;-69
2022/10/19 07:03:43;;;;;;;16.20;3.60;;;;;;;;;;5089102;28;20028;-69
2022/10/19 07:06:10;;;;;;;11.98;4.65;;;;;;;;;;5093090;28;20028;-69
2022/10/19 07:08:38;;;;;;;13.10;4.22;;;;;;;;;;5089272;28;20078;-69
2022/10/19 07:11:06;;;;;;;14.52;4.38;;;;;;;;;;5092065;28;20038;-69
2022/10/19 07:13:33;;;;;;;14.50;4.40;;;;;;;;;;5093370;28;20052;-69
2022/10/19 07:16:02;;;;;;;21.40;5.20;;;;;;;;;;5092687;28;20028;-69
2022/10/19 07:18:28;;;;;;;10.45;3.65;;;;;;;;;;5092301;28;20020;-68
2022/10/19 07:20:56;;;;;;;14.32;4.25;;;;;;;;;;5085224;28;20497;-69
2022/10/19 07:23:23;;;;;;;13.45;4.38;;;;;;;;;;5085117;28;20031;-69
2022/10/19 07:25:51;;;;;;;14.20;4.22;;;;;;;;;;5092288;28;20031;-68
2022/10/19 07:28:18;;;;;;;12.23;3.97;;;;;;;;;;5084761;28;20028;-69
2022/10/19 07:30:44;;;;;;;16.58;3.90;;;;;;;;;;5088559;28;20040;-70
2022/10/19 07:33:11;;;;;;;19.70;6.18;;;;;;;;;;5088953;28;20067;-70
2022/10/19 07:35:37;;;;;;;13.15;4.60;;;;;;;;;;5075801;28;20040;-70
2022/10/19 07:38:03;;;;;;;8.60;3.35;;;;;;;;;;5082544;28;20031;-70
2022/10/19 07:40:30;;;;;;;10.07;3.90;;;;;;;;;;5091153;28;20026;-69
2022/10/19 07:42:56;;;;;;;7.22;3.40;;;;;;;;;;5091941;28;20036;-69
2022/10/19 07:45:22;;;;;;;9.27;3.08;;;;;;;;;;5091425;28;20020;-70
2022/10/19 07:47:48;;;;;;;13.05;3.25;;;;;;;;;;5078556;28;20024;-70
2022/10/19 07:50:15;;;;;;;12.85;3.40;;;;;;;;;;5089839;28;20027;-70
2022/10/19 07:52:41;;;;;;;14.57;4.05;;;;;;;;;;5088267;28;20027;-70
2022/10/19 07:55:08;;;;;;;15.05;4.00;;;;;;;;;;5091105;28;20042;-70
2022/10/19 07:57:34;;;;;;;10.57;3.60;;;;;;;;;;5090976;28;20024;-69
2022/10/19 08:00:01;;;;;;;14.60;4.20;;;;;;;;;;5091468;28;20400;-70
2022/10/19 08:02:27;;;;;;;13.30;3.97;;;;;;;;;;5090289;28;20488;-70
2022/10/19 08:04:53;;;;;;;10.15;3.95;;;;;;;;;;5103382;28;20019;-70
2022/10/19 08:07:20;;;;;;;13.00;3.75;;;;;;;;;;5108769;28;20911;-70
2022/10/19 08:09:46;;;;;;;13.13;4.40;;;;;;;;;;5091058;28;20020;-70
2022/10/19 08:12:12;;;;;;;20.98;5.18;;;;;;;;;;5091127;28;20028;-69
2022/10/19 08:14:39;;;;;;;22.50;4.88;;;;;;;;;;5090983;28;20047;-72
2022/10/19 08:17:05;;;;;;;18.95;4.70;;;;;;;;;;5087072;28;20401;-70
2022/10/19 08:19:31;;;;;;;19.55;4.93;;;;;;;;;;5090588;28;20034;-69
2022/10/19 08:21:58;;;;;;;19.05;4.75;;;;;;;;;;5088887;28;20017;-69
2022/10/19 08:24:24;;;;;;;21.65;4.80;;;;;;;;;;5090863;28;20541;-69
2022/10/19 08:26:51;;;;;;;19.50;4.63;;;;;;;;;;5091216;28;20021;-69
2022/10/19 08:29:18;;;;;;;16.95;4.72;;;;;;;;;;5091082;28;20032;-70
2022/10/19 08:31:45;;;;;;;12.43;4.13;;;;;;;;;;5089776;28;20024;-70
2022/10/19 08:34:12;;;;;;;17.15;4.80;;;;;;;;;;5077989;28;20028;-70
2022/10/19 08:36:39;;;;;;;18.85;5.72;;;;;;;;;;5087980;28;20024;-69
2022/10/19 08:39:06;;;;;;;22.90;8.38;;;;;;;;;;5094704;28;20089;-70
2022/10/19 08:41:41;;;;;;;14.95;4.10;;;;;;;;;;5090898;28;20023;-70
2022/10/19 08:44:17;;;;;;;7.80;3.13;;;;;;;;;;5090296;28;20028;-69
2022/10/19 08:46:53;;;;;;;12.85;3.28;;;;;;;;;;5090644;28;20016;-70
2022/10/19 08:49:21;;;;;;;10.23;3.42;;;;;;;;;;5090367;28;20578;-69
2022/10/19 08:51:50;;;;;;;10.07;3.63;;;;;;;;;;5090158;28;20042;-69
2022/10/19 08:54:17;;;;;;;18.58;3.80;;;;;;;;;;5086585;28;20046;-69
2022/10/19 08:56:48;;;;;;;18.25;4.63;;;;;;;;;;5090689;28;20513;-69
2022/10/19 08:59:14;;;;;;;;;;;;;;;;;;5089214;28;20514;-69
2022/10/19 09:02:02;;;;;;;14.95;4.05;;;;;;;;;;5070375;28;19908;-70
2022/10/19 09:04:28;;;;;;;19.90;4.30;;;;;;;;;;5070210;28;20020;-69
2022/10/19 09:07:13;;;;;;;12.38;4.10;;;;;;;;;;5069443;28;20032;-69
2022/10/19 09:09:44;;;;;;;17.13;3.75;;;;;;;;;;5070066;28;20017;-70
2022/10/19 09:12:13;;;;;;;14.25;4.03;;;;;;;;;;5082692;28;20019;-70
2022/10/19 09:15:00;;;;;;;15.63;4.28;;;;;;;;;;5097624;28;20056;-70
2022/10/19 09:17:27;;;;;;;10.82;3.53;;;;;;;;;;5089345;28;20032;-70
2022/10/19 09:19:54;;;;;;;14.80;4.07;;;;;;;;;;5089955;28;20027;-70
2022/10/19 09:22:27;;;;;;;14.43;4.07;;;;;;;;;;5089645;28;20032;-70
2022/10/19 09:25:12;;;;;;;11.77;3.83;;;;;;;;;;5089195;28;20080;-69
2022/10/19 09:27:40;;;;;;;12.93;4.00;;;;;;;;;;5089630;28;20497;-70
2022/10/19 09:30:15;;;;;;;16.20;4.95;;;;;;;;;;5103605;28;20034;-69
2022/10/19 09:32:41;;;;;;;13.70;4.60;;;;;;;;;;5110259;28;20012;-70
2022/10/19 09:35:13;;;;;;;12.15;4.10;;;;;;;;;;5110497;28;20038;-70
2022/10/19 09:37:43;;;;;;;14.32;4.38;;;;;;;;;;5109880;28;20024;-68
2022/10/19 09:40:15;;;;;;;16.38;4.60;;;;;;;;;;5110304;28;20027;-70
2022/10/19 09:42:41;;;;;;;12.18;4.28;;;;;;;;;;5110173;28;20537;-70
2022/10/19 09:45:14;;;;;;;11.05;3.03;;;;;;;;;;5087817;28;20063;-69
2022/10/19 09:47:42;;;;;;;16.02;3.70;;;;;;;;;;5079496;28;20039;-70
2022/10/19 09:50:16;;;;;;;16.50;3.85;;;;;;;;;;5078849;28;20506;-69
2022/10/19 09:52:43;;;;;;;11.55;3.42;;;;;;;;;;5080234;28;20024;-69
2022/10/19 09:55:13;;;;;;;12.63;3.90;;;;;;;;;;5082920;28;20042;-68
2022/10/19 09:57:43;;;;;;;18.33;3.42;;;;;;;;;;5092679;28;20016;-69
2022/10/19 10:00:19;;;;;;;10.97;2.90;;;;;;;;;;5093509;28;20397;-69
2022/10/19 10:02:52;;;;;;;18.65;3.47;;;;;;;;;;5086463;28;20493;-69
2022/10/19 10:05:19;;;;;;;11.50;3.15;;;;;;;;;;5087866;28;20084;-68
2022/10/19 10:07:45;;;;;;;10.77;2.97;;;;;;;;;;5093543;28;20072;-68
2022/10/19 10:10:24;;;;;;;10.23;2.78;;;;;;;;;;5093199;28;20391;-68
2022/10/19 10:12:51;;;;;;;8.35;3.13;;;;;;;;;;5092176;28;20040;-69
2022/10/19 10:15:21;;;;;;;10.15;3.38;;;;;;;;;;5093297;28;20039;-69
2022/10/19 10:17:48;;;;;;;6.15;2.45;;;;;;;;;;5093307;28;20050;-69
2022/10/19 10:20:20;;;;;;;10.55;3.03;;;;;;;;;;5092779;28;20061;-70
2022/10/19 10:22:55;;;;;;;11.80;3.22;;;;;;;;;;5093202;28;20041;-70
2022/10/19 10:25:24;;;;;;;11.80;2.88;;;;;;;;;;5091965;28;20027;-70
2022/10/19 10:27:54;;;;;;;10.63;3.15;;;;;;;;;;5093569;28;20113;-70
2022/10/19 10:30:21;;;;;;;;;;;;;;;;;;5093119;28;20381;-70
2022/10/19 10:32:48;;;;;;;8.25;2.53;;;;;;;;;;5093322;28;20032;-69
2022/10/19 10:35:31;;;;;;;10.93;2.42;;;;;;;;;;5092809;28;20043;-70
2022/10/19 10:38:06;;;;;;;7.20;2.45;;;;;;;;;;5093003;28;20511;-70
2022/10/19 10:40:32;;;;;;;8.35;2.45;;;;;;;;;;5093609;28;20028;-70
2022/10/19 10:43:04;;;;;;;8.80;2.70;;;;;;;;;;5093182;28;20020;-69
2022/10/19 10:45:42;;;;;;;7.70;2.58;;;;;;;;;;5093084;28;20036;-70
2022/10/19 10:48:20;;;;;;;6.13;2.33;;;;;;;;;;5092936;28;20020;-70
2022/10/19 10:50:47;;;;;;;4.85;1.83;;;;;;;;;;5092697;28;20026;-70
2022/10/19 10:53:36;;;;;;;5.60;2.10;;;;;;;;;;5092952;28;20034;-70
2022/10/19 10:56:04;;;;;;;7.15;1.85;;;;;;;;;;5093102;28;20039;-70
2022/10/19 10:58:42;;;;;;;6.50;2.20;;;;;;;;;;5093402;28;20022;-70
2022/10/19 11:01:15;;;;;;;11.65;1.70;;;;;;;;;;5092787;28;20040;-69
2022/10/19 11:03:44;;;;;;;5.80;2.03;;;;;;;;;;5092628;28;20030;-69
2022/10/19 11:06:11;;;;;;;6.05;1.88;;;;;;;;;;5092532;28;20028;-70
2022/10/19 11:08:48;;;;;;;8.18;2.40;;;;;;;;;;5092855;28;20027;-69
2022/10/19 11:11:20;;;;;;;8.80;2.45;;;;;;;;;;5092474;28;20034;-70
2022/10/19 11:13:46;;;;;;;10.10;2.67;;;;;;;;;;5092257;28;20048;-70
2022/10/19 11:16:15;;;;;;;9.80;2.72;;;;;;;;;;5092563;28;20084;-70
2022/10/19 11:18:44;;;;;;;10.85;3.20;;;;;;;;;;5090841;28;20520;-69
2022/10/19 11:21:22;;;;;;;10.23;2.90;;;;;;;;;;5092777;28;20036;-69
2022/10/19 11:23:58;;;;;;;17.15;4.10;;;;;;;;;;5092756;28;20032;-69
2022/10/19 11:26:34;;;;;;;11.60;3.53;;;;;;;;;;5092258;28;20028;-70
2022/10/19 11:29:19;;;;;;;19.63;3.65;;;;;;;;;;5092655;28;20023;-69
2022/10/19 11:31:50;;;;;;;12.82;3.63;;;;;;;;;;5091085;28;20062;-69
2022/10/19 11:34:35;;;;;;;11.90;3.28;;;;;;;;;;5092101;28;20040;-69
2022/10/19 11:37:12;;;;;;;13.32;3.92;;;;;;;;;;5092153;28;20020;-70
2022/10/19 11:39:53;;;;;;;9.90;3.13;;;;;;;;;;5091667;28;20027;-68
2022/10/19 11:42:22;;;;;;;11.20;3.10;;;;;;;;;;5092305;28;20028;-69
2022/10/19 11:44:59;;;;;;;15.30;3.60;;;;;;;;;;5091831;28;20018;-69
2022/10/19 11:47:29;;;;;;;10.15;2.75;;;;;;;;;;5091284;28;20034;-70
2022/10/19 11:49:55;;;;;;;13.98;2.97;;;;;;;;;;5091934;28;20407;-70
2022/10/19 11:52:30;;;;;;;10.48;3.10;;;;;;;;;;5091670;28;20043;-70
2022/10/19 11:54:57;;;;;;;10.88;2.50;;;;;;;;;;5091911;28;20036;-70
2022/10/19 11:57:42;;;;;;;9.20;2.95;;;;;;;;;;5091592;28;20521;-70
2022/10/19 12:00:12;;;;;;;11.90;3.00;;;;;;;;;;5091641;28;20032;-70
2022/10/19 12:02:38;;;;;;;;;;;;;;;;;;5091479;28;20017;-71
2022/10/19 12:05:14;;;;;;;11.50;2.92;;;;;;;;;;5089404;28;19968;-69
2022/10/19 12:07:47;;;;;;;13.23;3.30;;;;;;;;;;5090666;28;20020;-70
2022/10/19 12:10:16;;;;;;;10.38;2.67;;;;;;;;;;5084543;28;20064;-69
2022/10/19 12:12:45;;;;;;;17.48;3.30;;;;;;;;;;5091311;28;20048;-69
2022/10/19 12:15:11;;;;;;;10.32;3.35;;;;;;;;;;5089810;28;20065;-70
2022/10/19 12:17:40;;;;;;;9.60;3.20;;;;;;;;;;5090954;28;20038;-69
2022/10/19 12:20:09;;;;;;;15.27;3.50;;;;;;;;;;5090764;28;20027;-69
2022/10/19 12:22:36;;;;;;;11.82;3.28;;;;;;;;;;5090947;28;20085;-69
2022/10/19 12:25:03;;;;;;;9.70;3.63;;;;;;;;;;5090957;28;20032;-70
2022/10/19 12:27:31;;;;;;;11.75;3.67;;;;;;;;;;5091191;28;20035;-70
2022/10/19 12:30:02;;;;;;;17.80;3.70;;;;;;;;;;5090363;28;20023;-70
2022/10/19 12:32:29;;;;;;;12.32;3.50;;;;;;;;;;5091315;28;20012;-70
2022/10/19 12:35:02;;;;;;;16.30;3.88;;;;;;;;;;5089629;28;20032;-69
2022/10/19 12:37:44;;;;;;;17.10;3.72;;;;;;;;;;5088705;28;20016;-70
2022/10/19 12:40:16;;;;;;;14.57;4.38;;;;;;;;;;5089583;28;20024;-70
2022/10/19 12:42:52;;;;;;;12.85;3.70;;;;;;;;;;5090582;28;20488;-69
2022/10/19 12:45:18;;;;;;;13.80;3.97;;;;;;;;;;5088710;28;20028;-70
2022/10/19 12:48:03;;;;;;;14.95;3.72;;;;;;;;;;5089454;28;20035;-69
2022/10/19 12:50:48;;;;;;;22.33;4.45;;;;;;;;;;5088665;28;20038;-69
2022/10/19 12:53:29;;;;;;;16.10;3.75;;;;;;;;;;5087440;28;20031;-70
2022/10/19 12:56:10;;;;;;;16.63;4.20;;;;;;;;;;5088066;28;20504;-70
2022/10/19 12:58:43;;;;;;;16.55;4.30;;;;;;;;;;5086754;28;20028;-70
2022/10/19 13:01:15;;;;;;;13.27;3.97;;;;;;;;;;5089695;28;20022;-70
2022/10/19 13:03:43;;;;;;;14.90;3.95;;;;;;;;;;5090764;28;20040;-68
2022/10/19 13:06:15;;;;;;;14.15;3.70;;;;;;;;;;5089890;28;20032;-68
2022/10/19 13:08:43;;;;;;;21.83;4.30;;;;;;;;;;5089227;28;20614;-70
2022/10/19 13:11:16;;;;;;;22.70;4.75;;;;;;;;;;5089179;28;20506;-70
2022/10/19 13:13:55;;;;;;;20.17;5.07;;;;;;;;;;5087600;28;20773;-70
2022/10/19 13:16:41;;;;;;;17.38;3.83;;;;;;;;;;5089078;28;20047;-70
2022/10/19 13:19:14;;;;;;;17.77;4.32;;;;;;;;;;5088082;28;20030;-70
2022/10/19 13:22:06;;;;;;;17.10;4.35;;;;;;;;;;5090160;28;20043;-69
2022/10/19 13:24:34;;;;;;;14.82;4.20;;;;;;;;;;5051040;28;20404;-70
2022/10/19 13:27:03;;;;;;;16.00;4.55;;;;;;;;;;5067899;28;20122;-69
2022/10/19 13:29:40;;;;;;;16.27;4.15;;;;;;;;;;5051127;28;20054;-69
2022/10/19 13:32:25;;;;;;;15.07;4.63;;;;;;;;;;5072029;28;20032;-69
2022/10/19 13:34:51;;;;;;;22.60;5.38;;;;;;;;;;5071580;28;20052;-70
2022/10/19 13:37:18;;;;;;;20.30;4.78;;;;;;;;;;5070071;28;20030;-70
2022/10/19 13:39:44;;;;;;;21.52;4.70;;;;;;;;;;5071417;28;20033;-68
2022/10/19 13:42:25;;;;;;;21.40;5.15;;;;;;;;;;5072006;28;20033;-69
2022/10/19 13:44:51;;;;;;;;;;;;;;;;;;5070924;28;20039;-69
2022/10/19 13:47:23;;;;;;;16.65;5.35;;;;;;;;;;5071005;28;20390;-69
2022/10/19 13:50:08;;;;;;;20.52;4.45;;;;;;;;;;5070798;28;20021;-70
2022/10/19 13:52:43;;;;;;;18.67;5.10;;;;;;;;;;5054089;28;20029;-70
2022/10/19 13:55:10;;;;;;;21.02;5.30;;;;;;;;;;5067383;28;20036;-69
2022/10/19 13:57:55;;;;;;;22.77;5.68;;;;;;;;;;5070969;28;20035;-70
2022/10/19 14:00:22;;;;;;;30.30;5.93;;;;;;;;;;5072602;28;20028;-69
2022/10/19 14:03:05;;;;;;;26.40;5.03;;;;;;;;;;5093626;28;20027;-68
2022/10/19 14:05:32;;;;;;;19.15;5.57;;;;;;;;;;5094061;28;20028;-69
2022/10/19 14:08:17;;;;;;;21.83;5.50;;;;;;;;;;5094073;28;20056;-69
2022/10/19 14:10:45;;;;;;;26.23;5.22;;;;;;;;;;5092768;28;20020;-69
2022/10/19 14:13:14;;;;;;;20.90;4.85;;;;;;;;;;5093307;28;20043;-69
2022/10/19 14:15:49;;;;;;;27.88;6.10;;;;;;;;;;5093226;28;20032;-69
2022/10/19 14:18:23;;;;;;;28.83;6.25;;;;;;;;;;5093242;28;20072;-69
2022/10/19 14:21:03;;;;;;;23.42;5.22;;;;;;;;;;5093520;28;20028;-69
2022/10/19 14:23:31;;;;;;;18.52;5.47;;;;;;;;;;5093091;28;20480;-70
2022/10/19 14:26:05;;;;;;;22.50;5.03;;;;;;;;;;5092867;28;20404;-70
2022/10/19 14:28:32;;;;;;;19.70;4.97;;;;;;;;;;5093621;28;20020;-70
2022/10/19 14:30:58;;;;;;;20.48;4.97;;;;;;;;;;5092998;28;20024;-70
2022/10/19 14:33:25;;;;;;;17.00;4.43;;;;;;;;;;5093156;28;20042;-70
2022/10/19 14:35:52;;;;;;;17.58;4.88;;;;;;;;;;5091866;28;20048;-70
2022/10/19 14:38:21;;;;;;;20.60;5.35;;;;;;;;;;5092323;28;20036;-68
2022/10/19 14:40:47;;;;;;;26.95;5.05;;;;;;;;;;5090317;28;20036;-69
2022/10/19 14:43:25;;;;;;;20.75;5.07;;;;;;;;;;5088220;28;20025;-69
2022/10/19 14:46:08;;;;;;;17.58;5.03;;;;;;;;;;5092285;28;20035;-69
2022/10/19 14:48:36;;;;;;;23.23;4.95;;;;;;;;;;5092420;28;20077;-69